Flushing, OH (43977)

7:17 AM EST on January 25, 2015 (GMT -0500)
Morristown, Ohio | Change Station
CLOSE
Current Station
Personal Weather Station
Location: Belmont, OH
Elevation: 1283 ft
Nearby Weather Stations
Active Advisory: Winter Weather Advisory

Elev 1283 ft 40.08 °N, 81.06 °W | Updated 2 minutes ago

Overcast
Overcast
31.5 °F
Feels Like 32 °F
N
2.7
Wind Variable Wind from SW

Today
High -- | Low -- °F
--% Chance of Precip.
Yesterday
High -- | Low -- °F
Precip. -- in
7:39 AM 5:34 PM
Waxing Crescent, 31% visible
Pressure 29.80 in
Visibility 5.0 miles
Clouds Few 1000 ft
Overcast 3200 ft
Windchill 32 °F
Dew Point 30 °F
Humidity 95%
Rainfall 0.00 in
Snow Depth Not available.
UV 0 out of 12
Pollen .10 out of 12
Air Quality Not available.
Flu Activity Not available.
METAR KHLG 251153Z 21004KT 5SM BR FEW010 OVC032 00/M02 A2976 RMK AO2 SLP091 60000 I6001 T00001017 10000 20000 53002

More Conditions Fewer Conditions

Pressure 29.80 in
Visibility 5.0 miles
Clouds Few 1000 ft
Overcast 3200 ft
Windchill 32 °F
Dew Point 30 °F
Humidity 95%
Rainfall 0.00 in
Snow Depth Not available.
UV 0 out of 12
Pollen .10 out of 12
Air Quality Not available.
Flu Activity Not available.
METAR KHLG 251153Z 21004KT 5SM BR FEW010 OVC032 00/M02 A2976 RMK AO2 SLP091 60000 I6001 T00001017 10000 20000 53002

More Conditions Fewer Conditions

10-Day Weather Forecast

Almanac

Astronomy

Jan. 25, 2015 Rise Set
Actual Time
Civil Twilight
Nautical Twilight
Astronomical Twilight
Moon
Length of Visible Light
Length of Day
Tomorrow will be .
, % of the Moon is Illuminated

Today's Extremes

State Highs State Lows

Community

WunderPhotos

Upload Photos

1,789,873 photos uploaded!

WunderBlogs® & News

Nearby

Air Quality

  Air Quality AQ Index Pollutant
Not available.

Snow Depth

Station Depth Elevation

Earthquake Activity

City Distance Mag. Time & Date
Minimum magnitude displayed is 2.5.

Coastal Water Temperatures

Place Temperature

Nearby Weather Stations